createdAt,value
2023-01-22T00:28:52.899Z,12.05
2023-01-22T00:31:19.325Z,11.90
2023-01-22T00:33:47.516Z,12.85
2023-01-22T00:36:15.323Z,14.98
2023-01-22T00:38:41.726Z,14.02
2023-01-22T00:41:08.440Z,14.35
2023-01-22T00:43:35.462Z,13.75
2023-01-22T00:46:01.737Z,10.30
2023-01-22T00:48:28.413Z,10.48
2023-01-22T00:50:54.964Z,8.90
2023-01-22T00:53:21.355Z,9.75
2023-01-22T00:55:51.558Z,11.75
2023-01-22T00:58:17.995Z,11.27
2023-01-22T01:00:44.399Z,8.27
2023-01-22T01:03:29.454Z,10.38
2023-01-22T01:05:57.160Z,8.13
2023-01-22T01:08:24.739Z,9.52
2023-01-22T01:10:58.329Z,6.78
2023-01-22T01:13:25.411Z,9.02
2023-01-22T01:16:02.839Z,7.85
2023-01-22T01:18:29.753Z,9.45
2023-01-22T01:20:56.659Z,8.45
2023-01-22T01:23:23.651Z,8.20
2023-01-22T01:25:50.130Z,10.93
2023-01-22T01:28:16.928Z,8.73
2023-01-22T01:30:43.297Z,7.13
2023-01-22T01:33:09.714Z,7.63
2023-01-22T01:35:35.940Z,8.30
2023-01-22T01:38:02.375Z,9.88
2023-01-22T01:40:28.726Z,7.05
2023-01-22T01:42:55.198Z,8.13
2023-01-22T01:45:32.375Z,6.43
2023-01-22T01:48:17.330Z,7.40
2023-01-22T01:50:46.519Z,7.57
2023-01-22T01:53:13.141Z,6.53
2023-01-22T01:55:39.524Z,6.22
2023-01-22T01:58:11.057Z,7.78
2023-01-22T02:00:38.847Z,6.43
2023-01-22T02:03:05.108Z,6.88
2023-01-22T02:05:34.315Z,7.50
2023-01-22T02:08:00.677Z,5.13
2023-01-22T02:10:26.966Z,5.95
2023-01-22T02:12:56.477Z,5.97
2023-01-22T02:15:23.305Z,5.65
2023-01-22T02:17:49.552Z,6.22
2023-01-22T02:20:16.328Z,5.07
2023-01-22T02:22:42.866Z,5.78
2023-01-22T02:25:09.362Z,6.88
2023-01-22T02:27:35.681Z,6.15
2023-01-22T02:30:05.452Z,5.95
2023-01-22T02:32:31.775Z,6.10
2023-01-22T02:34:58.257Z,5.60
2023-01-22T02:37:25.881Z,7.35
2023-01-22T02:39:54.188Z,6.25
2023-01-22T02:42:20.557Z,5.93
2023-01-22T02:44:46.878Z,4.93
2023-01-22T02:47:13.187Z,5.75
2023-01-22T02:49:39.634Z,4.95
2023-01-22T02:52:06.079Z,7.07
2023-01-22T02:54:33.586Z,4.78
2023-01-22T02:56:59.882Z,5.07
2023-01-22T02:59:26.194Z,5.53
2023-01-22T03:01:52.571Z,5.78
2023-01-22T03:04:19.000Z,4.43
2023-01-22T03:06:46.636Z,4.80
2023-01-22T03:09:15.076Z,5.07
2023-01-22T03:11:42.184Z,5.57
2023-01-22T03:14:34.497Z,5.80
2023-01-22T03:20:28.876Z,4.38
2023-01-22T03:22:55.203Z,4.65
2023-01-22T03:25:21.513Z,4.43
2023-01-22T03:28:09.113Z,5.10
2023-01-22T03:30:38.308Z,5.72
2023-01-22T03:33:04.544Z,4.95
2023-01-22T03:35:31.183Z,4.35
2023-01-22T03:38:18.780Z,4.18
2023-01-22T03:40:45.739Z,4.32
2023-01-22T03:43:12.065Z,4.78
2023-01-22T03:45:38.421Z,4.78
2023-01-22T03:48:05.813Z,4.85
2023-01-22T03:50:37.340Z,3.50
2023-01-22T03:53:04.036Z,4.57
2023-01-22T03:55:31.416Z,4.35
2023-01-22T03:57:57.681Z,4.75
2023-01-22T04:00:24.489Z,4.70
2023-01-22T04:02:53.507Z,4.65
2023-01-22T04:05:23.671Z,4.75
2023-01-22T04:07:50.708Z,4.90
2023-01-22T04:10:20.568Z,4.22
2023-01-22T04:12:47.930Z,3.90
2023-01-22T04:15:17.262Z,4.15
2023-01-22T04:17:45.489Z,3.30
2023-01-22T04:20:31.980Z,4.05
2023-01-22T04:23:16.728Z,3.40
2023-01-22T04:25:43.885Z,4.55
2023-01-22T04:28:14.451Z,5.15
2023-01-22T04:30:42.126Z,4.03
2023-01-22T04:33:28.225Z,4.10
2023-01-22T04:36:03.919Z,3.58
2023-01-22T04:38:30.221Z,3.22
2023-01-22T04:40:56.580Z,4.45
2023-01-22T04:43:22.879Z,4.07
2023-01-22T04:45:50.211Z,4.30
2023-01-22T04:48:18.958Z,4.25
2023-01-22T04:50:46.657Z,3.97
2023-01-22T04:53:12.995Z,3.95
2023-01-22T04:55:41.776Z,4.10
2023-01-22T04:58:09.641Z,3.83
2023-01-22T05:00:36.760Z,3.75
2023-01-22T05:03:04.202Z,4.15
2023-01-22T05:05:31.456Z,4.72
2023-01-22T05:07:58.087Z,4.70
2023-01-22T05:10:24.364Z,7.20
2023-01-22T05:12:51.059Z,3.85
2023-01-22T05:15:24.343Z,4.20
2023-01-22T05:17:53.242Z,4.28
2023-01-22T05:20:20.138Z,4.32
2023-01-22T05:22:46.626Z,4.03
2023-01-22T05:25:13.268Z,5.38
2023-01-22T05:27:40.054Z,3.45
2023-01-22T05:30:12.961Z,4.57
2023-01-22T05:32:48.838Z,3.83
2023-01-22T05:35:16.141Z,4.68
2023-01-22T05:37:44.631Z,3.72
2023-01-22T05:40:12.469Z,4.63
2023-01-22T05:42:38.794Z,3.47
2023-01-22T05:45:07.116Z,3.33
2023-01-22T05:47:38.300Z,4.35
2023-01-22T05:50:28.410Z,3.50
2023-01-22T05:53:01.942Z,4.55
2023-01-22T05:55:28.658Z,3.67
2023-01-22T05:57:54.926Z,4.25
2023-01-22T06:00:22.292Z,3.45
2023-01-22T06:02:58.597Z,4.00
2023-01-22T06:05:25.906Z,3.53
2023-01-22T06:07:59.661Z,3.45
2023-01-22T06:10:30.105Z,3.97
2023-01-22T06:12:57.052Z,4.57
2023-01-22T06:15:23.388Z,3.80
2023-01-22T06:18:01.549Z,4.18
2023-01-22T06:20:27.823Z,4.57
2023-01-22T06:22:54.113Z,3.97
2023-01-22T06:25:20.410Z,3.72
2023-01-22T06:28:08.197Z,4.35
2023-01-22T06:30:35.284Z,4.25
2023-01-22T06:33:02.556Z,4.75
2023-01-22T06:35:28.845Z,3.72
2023-01-22T06:37:55.937Z,3.92
2023-01-22T06:40:23.441Z,4.13
2023-01-22T06:42:50.114Z,4.93
2023-01-22T06:45:17.224Z,4.32
2023-01-22T06:47:48.955Z,9.63
2023-01-22T06:50:15.770Z,5.68
2023-01-22T06:52:42.187Z,6.53
2023-01-22T06:55:09.314Z,3.53
2023-01-22T06:57:37.789Z,3.90
2023-01-22T07:00:05.308Z,4.05
2023-01-22T07:02:31.561Z,4.55
2023-01-22T07:04:58.210Z,4.60
2023-01-22T07:07:24.497Z,4.00
2023-01-22T07:09:50.753Z,5.28
2023-01-22T07:12:16.980Z,4.45
2023-01-22T07:14:43.249Z,4.55
2023-01-22T07:17:09.884Z,6.25
2023-01-22T07:19:36.207Z,4.30
2023-01-22T07:22:02.556Z,4.35
2023-01-22T07:24:28.812Z,3.75
2023-01-22T07:26:55.242Z,4.38
2023-01-22T07:29:21.609Z,4.68
2023-01-22T07:31:49.720Z,4.50
2023-01-22T07:34:16.301Z,4.63
2023-01-22T07:36:42.586Z,4.75
2023-01-22T07:39:08.853Z,4.05
2023-01-22T07:41:35.108Z,3.70
2023-01-22T07:44:10.016Z,5.00
2023-01-22T07:46:36.385Z,3.95
2023-01-22T07:49:02.718Z,4.50
2023-01-22T07:51:28.992Z,4.38
2023-01-22T07:53:55.346Z,4.65
2023-01-22T07:56:21.654Z,4.88
2023-01-22T07:58:47.916Z,4.82
2023-01-22T08:01:14.294Z,7.55
2023-01-22T08:03:40.698Z,6.70
2023-01-22T08:06:16.831Z,5.63
2023-01-22T08:08:43.162Z,6.22
2023-01-22T08:11:09.768Z,5.82
2023-01-22T08:13:36.012Z,5.18
2023-01-22T08:16:02.394Z,5.47
2023-01-22T08:18:28.884Z,4.93
2023-01-22T08:20:55.233Z,6.40
2023-01-22T08:23:22.087Z,4.85
2023-01-22T08:25:48.509Z,4.70
2023-01-22T08:28:15.113Z,4.65
2023-01-22T08:30:46.373Z,5.13
2023-01-22T08:33:12.944Z,3.88
2023-01-22T08:35:39.713Z,4.05
2023-01-22T08:38:06.177Z,4.40
2023-01-22T08:40:32.589Z,4.43
2023-01-22T08:42:59.028Z,3.90
2023-01-22T08:45:25.577Z,6.30
2023-01-22T08:47:55.758Z,4.45
2023-01-22T08:50:22.068Z,4.55
2023-01-22T08:52:48.373Z,3.90
2023-01-22T08:55:14.761Z,4.97
2023-01-22T08:57:41.196Z,4.80
2023-01-22T09:00:08.424Z,4.30
2023-01-22T09:02:34.786Z,4.40
2023-01-22T09:05:01.127Z,5.63
2023-01-22T09:07:27.458Z,5.10
2023-01-22T09:09:53.747Z,4.25
2023-01-22T09:12:20.100Z,4.18
2023-01-22T09:14:47.019Z,4.70
2023-01-22T09:17:13.276Z,4.40
2023-01-22T09:19:40.121Z,4.25
2023-01-22T09:22:07.495Z,4.07
2023-01-22T09:24:34.014Z,4.72
2023-01-22T09:27:00.402Z,4.53
2023-01-22T09:29:26.658Z,4.07
2023-01-22T09:31:53.108Z,5.07
2023-01-22T09:34:19.444Z,4.78
2023-01-22T09:36:45.902Z,5.82
2023-01-22T09:39:12.210Z,5.10
2023-01-22T09:41:39.682Z,5.53
2023-01-22T09:44:20.495Z,4.47
2023-01-22T09:46:49.675Z,4.82
2023-01-22T09:49:17.325Z,5.32
2023-01-22T09:51:45.750Z,5.72
2023-01-22T09:54:15.381Z,5.75
2023-01-22T09:56:43.046Z,4.57
2023-01-22T09:59:14.783Z,4.82
2023-01-22T10:01:41.858Z,4.40
2023-01-22T10:04:16.786Z,4.28
2023-01-22T10:06:45.459Z,4.05
2023-01-22T10:09:11.717Z,4.22
2023-01-22T10:11:38.513Z,4.22
2023-01-22T10:14:07.005Z,4.10
2023-01-22T10:16:33.763Z,4.22
2023-01-22T10:19:02.317Z,4.20
2023-01-22T10:21:33.288Z,3.95
2023-01-22T10:24:00.100Z,4.00
2023-01-22T10:26:26.416Z,4.47
2023-01-22T10:28:55.075Z,4.45
2023-01-22T10:31:24.173Z,4.43
2023-01-22T10:34:00.717Z,4.10
2023-01-22T10:36:27.973Z,6.28
2023-01-22T10:39:08.858Z,4.93
2023-01-22T10:41:35.165Z,3.97
2023-01-22T10:44:08.362Z,3.63
2023-01-22T10:46:34.654Z,5.00
2023-01-22T10:49:01.848Z,5.43
2023-01-22T10:51:34.295Z,5.68
2023-01-22T10:54:00.773Z,5.13
2023-01-22T10:56:32.324Z,3.65
2023-01-22T10:59:00.116Z,5.20
2023-01-22T11:01:32.211Z,6.32
2023-01-22T11:03:58.755Z,6.28
2023-01-22T11:06:40.443Z,6.28
2023-01-22T11:09:32.781Z,4.88
2023-01-22T11:12:15.763Z,4.78
2023-01-22T11:14:42.579Z,6.00
2023-01-22T11:17:20.802Z,4.75
2023-01-22T11:19:50.256Z,4.40
2023-01-22T11:22:43.191Z,4.53
2023-01-22T11:25:10.435Z,6.03
2023-01-22T11:27:36.766Z,6.05
2023-01-22T11:30:09.372Z,4.38
2023-01-22T11:32:38.663Z,4.22
2023-01-22T11:35:23.387Z,4.68
2023-01-22T11:37:58.944Z,3.80
2023-01-22T11:40:27.754Z,4.60
2023-01-22T11:43:12.865Z,4.50
2023-01-22T11:45:39.121Z,3.42
2023-01-22T11:48:19.202Z,4.18
2023-01-22T11:50:51.830Z,3.97
2023-01-22T11:53:29.030Z,3.78
2023-01-22T11:56:24.514Z,3.47
2023-01-22T11:58:50.885Z,5.05
2023-01-22T12:01:21.390Z,4.43
2023-01-22T12:03:53.745Z,5.30
2023-01-22T12:06:32.669Z,4.70
2023-01-22T12:09:17.261Z,4.30
2023-01-22T12:12:05.912Z,4.32
2023-01-22T12:14:38.276Z,4.63
2023-01-22T12:17:04.638Z,4.60
2023-01-22T12:19:49.544Z,3.92
2023-01-22T12:22:24.500Z,4.00
2023-01-22T12:25:09.592Z,3.70
2023-01-22T12:27:37.876Z,3.88
2023-01-22T12:30:07.229Z,4.20
2023-01-22T12:32:36.950Z,4.10
2023-01-22T12:35:08.834Z,4.40
2023-01-22T12:37:39.843Z,5.45
2023-01-22T12:40:06.181Z,5.40
2023-01-22T12:42:36.808Z,6.97
2023-01-22T12:45:03.152Z,5.32
2023-01-22T12:47:36.271Z,6.45
2023-01-22T12:50:04.785Z,6.70
2023-01-22T12:52:32.950Z,4.68
2023-01-22T12:54:59.941Z,3.92
2023-01-22T12:57:35.448Z,6.32
2023-01-22T13:00:10.628Z,6.75
2023-01-22T13:02:37.830Z,5.95
2023-01-22T13:05:22.518Z,5.45
2023-01-22T13:07:49.985Z,5.20
2023-01-22T13:10:19.586Z,5.45
2023-01-22T13:12:47.906Z,4.53
2023-01-22T13:15:34.524Z,5.22
2023-01-22T13:18:07.689Z,4.45
2023-01-22T13:20:35.857Z,4.10
2023-01-22T13:23:02.441Z,3.50
2023-01-22T13:25:29.734Z,3.80
2023-01-22T13:27:56.719Z,4.07
2023-01-22T13:30:26.798Z,4.35
2023-01-22T13:33:03.539Z,4.40
2023-01-22T13:35:29.849Z,4.45
2023-01-22T13:37:56.253Z,3.88
2023-01-22T13:40:22.979Z,3.20
2023-01-22T13:42:49.421Z,4.80
2023-01-22T13:45:18.722Z,3.83
2023-01-22T13:47:45.143Z,4.05
2023-01-22T13:50:18.618Z,4.05
2023-01-22T13:52:45.139Z,4.63
2023-01-22T13:55:15.818Z,5.20
2023-01-22T13:57:45.923Z,4.32
2023-01-22T14:00:26.380Z,4.10
2023-01-22T14:02:52.754Z,4.65
2023-01-22T14:05:23.181Z,5.53
2023-01-22T14:07:49.867Z,6.30
2023-01-22T14:10:16.474Z,5.07
2023-01-22T14:12:42.970Z,5.05
2023-01-22T14:15:15.626Z,4.65
2023-01-22T14:17:41.979Z,5.70
2023-01-22T14:20:08.699Z,5.50
2023-01-22T14:22:35.000Z,7.57
2023-01-22T14:25:01.354Z,6.68
2023-01-22T14:27:29.153Z,7.25
2023-01-22T14:29:55.454Z,7.90
2023-01-22T14:32:23.371Z,6.25
2023-01-22T14:34:49.678Z,4.82
2023-01-22T14:37:16.514Z,5.63
2023-01-22T14:39:42.786Z,5.35
2023-01-22T14:42:09.152Z,6.55
2023-01-22T14:44:35.420Z,6.95
2023-01-22T14:47:01.863Z,6.75
2023-01-22T14:49:28.201Z,10.02
2023-01-22T14:51:54.914Z,8.10
2023-01-22T14:54:21.352Z,9.10
2023-01-22T14:56:47.622Z,5.60
2023-01-22T14:59:14.031Z,5.50
2023-01-22T15:01:40.381Z,5.85
2023-01-22T15:04:06.938Z,6.43
2023-01-22T15:06:33.390Z,7.60
2023-01-22T15:08:59.689Z,5.97
2023-01-22T15:11:26.106Z,6.75
2023-01-22T15:13:52.744Z,5.30
2023-01-22T15:16:19.492Z,5.70
2023-01-22T15:18:45.898Z,6.50
2023-01-22T15:21:12.332Z,8.07
2023-01-22T15:23:38.640Z,6.43
2023-01-22T15:26:05.910Z,5.80
2023-01-22T15:28:32.244Z,6.38
2023-01-22T15:31:07.827Z,5.95
2023-01-22T15:33:35.293Z,6.78
2023-01-22T15:36:01.654Z,6.35
2023-01-22T15:38:28.040Z,5.80
2023-01-22T15:41:03.299Z,6.28
2023-01-22T15:43:29.609Z,6.75
2023-01-22T15:45:56.467Z,6.15
2023-01-22T15:48:22.915Z,7.35
2023-01-22T15:50:49.196Z,6.28
2023-01-22T15:53:15.745Z,6.18
2023-01-22T15:55:48.345Z,6.20
2023-01-22T15:58:14.665Z,6.18
2023-01-22T16:00:40.922Z,6.68
2023-01-22T16:03:07.279Z,7.00
2023-01-22T16:05:33.689Z,6.88
2023-01-22T16:08:00.479Z,7.85
2023-01-22T16:10:26.805Z,7.28
2023-01-22T16:12:53.137Z,7.60
2023-01-22T16:15:19.624Z,9.27
2023-01-22T16:17:46.170Z,9.25
2023-01-22T16:20:12.548Z,8.15
2023-01-22T16:22:38.848Z,9.05
2023-01-22T16:25:05.380Z,8.90
2023-01-22T16:27:31.788Z,8.73
2023-01-22T16:29:58.149Z,9.20
2023-01-22T16:32:24.495Z,8.25
2023-01-22T16:34:50.785Z,7.65
2023-01-22T16:37:17.096Z,7.40
2023-01-22T16:39:43.445Z,7.63
2023-01-22T16:42:09.774Z,9.98
2023-01-22T16:44:36.882Z,8.75
2023-01-22T16:47:03.180Z,7.70
2023-01-22T16:49:30.632Z,6.28
2023-01-22T16:51:58.173Z,7.20
2023-01-22T16:54:28.944Z,8.82
2023-01-22T16:56:59.379Z,7.45
2023-01-22T16:59:27.026Z,7.20
2023-01-22T17:01:54.224Z,7.70
2023-01-22T17:04:20.805Z,7.07
2023-01-22T17:06:48.357Z,9.23
2023-01-22T17:09:19.312Z,8.50
2023-01-22T17:11:48.813Z,7.97
2023-01-22T17:14:16.910Z,8.10
2023-01-22T17:16:43.229Z,9.90
2023-01-22T17:19:09.640Z,9.60
2023-01-22T17:21:36.016Z,10.52
2023-01-22T17:24:03.747Z,11.27
2023-01-22T17:26:30.086Z,9.20
2023-01-22T17:28:56.430Z,7.75
2023-01-22T17:31:24.014Z,8.07
2023-01-22T17:33:51.224Z,7.85
2023-01-22T17:36:19.221Z,9.98
2023-01-22T17:38:45.488Z,9.70
2023-01-22T17:41:14.389Z,8.85
2023-01-22T17:43:40.759Z,9.63
2023-01-22T17:46:08.132Z,7.78
2023-01-22T17:48:35.635Z,8.02
2023-01-22T17:51:03.730Z,8.52
2023-01-22T17:53:30.085Z,8.05
2023-01-22T17:56:03.736Z,10.23
2023-01-22T18:01:00.939Z,10.07
2023-01-22T18:03:27.298Z,8.30
2023-01-22T18:05:54.493Z,9.57
2023-01-22T18:08:20.820Z,8.00
2023-01-22T18:10:47.143Z,8.10
2023-01-22T18:13:13.412Z,8.68
2023-01-22T18:15:44.424Z,7.72
2023-01-22T18:18:10.832Z,7.65
2023-01-22T18:20:40.273Z,7.25
2023-01-22T18:23:06.599Z,7.95
2023-01-22T18:25:32.881Z,7.22
2023-01-22T18:27:59.217Z,9.32
2023-01-22T18:30:26.742Z,9.45
2023-01-22T18:32:53.093Z,8.10
2023-01-22T18:35:19.743Z,8.45
2023-01-22T18:37:46.277Z,10.38
2023-01-22T18:40:12.936Z,8.35
2023-01-22T18:42:39.316Z,8.48
2023-01-22T18:45:06.068Z,6.22
2023-01-22T18:47:34.559Z,9.00
2023-01-22T18:50:00.892Z,7.05
2023-01-22T18:52:27.244Z,7.53
2023-01-22T18:54:53.572Z,8.73
2023-01-22T18:57:19.951Z,8.75
2023-01-22T18:59:46.265Z,10.57
2023-01-22T19:02:15.977Z,10.68
2023-01-22T19:04:42.312Z,11.13
2023-01-22T19:07:08.589Z,11.63
2023-01-22T19:09:34.997Z,10.60
2023-01-22T19:12:01.479Z,8.88
2023-01-22T19:14:27.841Z,7.30
2023-01-22T19:16:54.151Z,8.05
2023-01-22T19:19:21.783Z,8.88
2023-01-22T19:21:51.430Z,7.82
2023-01-22T19:24:19.283Z,6.40
2023-01-22T19:26:46.839Z,8.82
2023-01-22T19:29:14.489Z,8.02
2023-01-22T19:31:41.970Z,8.27
2023-01-22T19:34:09.075Z,7.55
2023-01-22T19:36:38.357Z,6.93
2023-01-22T19:39:06.457Z,9.02
2023-01-22T19:41:32.814Z,6.05
2023-01-22T19:44:00.012Z,7.18
2023-01-22T19:46:27.479Z,6.40
2023-01-22T19:48:54.749Z,5.07
2023-01-22T19:51:22.265Z,5.97
2023-01-22T19:53:49.012Z,5.97
2023-01-22T19:56:20.842Z,5.55
2023-01-22T19:58:47.894Z,7.25
2023-01-22T20:01:14.840Z,6.25
2023-01-22T20:03:41.483Z,8.05
2023-01-22T20:06:08.890Z,6.22
2023-01-22T20:08:36.353Z,6.80
2023-01-22T20:11:03.500Z,7.93
2023-01-22T20:13:30.105Z,7.05
2023-01-22T20:15:56.757Z,8.15
2023-01-22T20:18:23.048Z,9.30
2023-01-22T20:20:56.529Z,7.80
2023-01-22T20:23:23.501Z,6.50
2023-01-22T20:25:50.114Z,8.07
2023-01-22T20:28:17.442Z,9.68
2023-01-22T20:30:44.498Z,8.80
2023-01-22T20:33:11.305Z,9.82
2023-01-22T20:35:43.730Z,8.48
2023-01-22T20:38:09.965Z,7.85
2023-01-22T20:40:38.564Z,7.60
2023-01-22T20:43:05.272Z,8.90
2023-01-22T20:45:31.651Z,7.38
2023-01-22T20:47:58.038Z,7.38
2023-01-22T20:50:24.467Z,10.07
2023-01-22T20:52:53.082Z,7.90
2023-01-22T20:55:19.811Z,9.13
2023-01-22T20:57:46.266Z,7.07
2023-01-22T21:00:12.908Z,8.45
2023-01-22T21:02:39.235Z,8.52
2023-01-22T21:05:05.651Z,8.25
2023-01-22T21:07:32.013Z,8.70
2023-01-22T21:09:58.341Z,8.48
2023-01-22T21:12:24.775Z,7.30
2023-01-22T21:14:57.667Z,7.45
2023-01-22T21:17:24.065Z,8.63
2023-01-22T21:19:51.565Z,6.28
2023-01-22T21:22:17.952Z,7.25
2023-01-22T21:24:44.354Z,7.80
2023-01-22T21:27:10.767Z,7.38
2023-01-22T21:29:37.247Z,7.78
2023-01-22T21:32:03.711Z,8.40
2023-01-22T21:34:30.139Z,7.28
2023-01-22T21:36:58.644Z,8.23
2023-01-22T21:39:28.093Z,8.73
2023-01-22T21:42:13.325Z,8.73
2023-01-22T21:44:58.694Z,8.98
2023-01-22T21:47:25.028Z,7.15
2023-01-22T21:49:51.338Z,9.05
2023-01-22T21:52:17.604Z,6.80
2023-01-22T21:54:43.930Z,7.00
2023-01-22T21:57:14.198Z,7.25
2023-01-22T21:59:40.773Z,7.30
2023-01-22T22:02:07.870Z,6.90
2023-01-22T22:04:34.230Z,8.35
2023-01-22T22:07:00.587Z,7.65
2023-01-22T22:09:27.489Z,6.47
2023-01-22T22:11:57.551Z,7.32
2023-01-22T22:14:24.481Z,6.60
2023-01-22T22:16:50.883Z,6.20
2023-01-22T22:19:17.787Z,7.65
2023-01-22T22:21:44.459Z,8.60
2023-01-22T22:24:10.815Z,8.00
2023-01-22T22:26:37.315Z,9.20
2023-01-22T22:29:04.484Z,7.75
2023-01-22T22:31:30.788Z,7.03
2023-01-22T22:33:57.197Z,7.43
2023-01-22T22:36:25.193Z,6.65
2023-01-22T22:38:51.612Z,5.72
2023-01-22T22:41:21.881Z,6.10
2023-01-22T22:43:50.753Z,6.55
2023-01-22T22:46:23.199Z,6.57
2023-01-22T22:48:50.273Z,7.15
2023-01-22T22:51:19.967Z,7.75
2023-01-22T22:53:46.778Z,7.72
2023-01-22T22:56:13.328Z,6.75
2023-01-22T22:58:39.604Z,7.07
2023-01-22T23:01:06.889Z,6.85
2023-01-22T23:03:35.020Z,6.55
2023-01-22T23:06:08.155Z,8.30
2023-01-22T23:08:35.905Z,8.23
2023-01-22T23:11:05.936Z,8.05
2023-01-22T23:13:32.285Z,7.97
2023-01-22T23:15:59.583Z,8.98
2023-01-22T23:18:26.278Z,8.20
2023-01-22T23:20:52.552Z,8.73
2023-01-22T23:23:18.862Z,9.25
2023-01-22T23:25:45.270Z,9.45
2023-01-22T23:28:11.562Z,9.20
2023-01-22T23:30:39.123Z,8.48
2023-01-22T23:33:05.479Z,8.82
2023-01-22T23:35:31.808Z,8.77
2023-01-22T23:37:58.063Z,9.75
2023-01-22T23:40:24.368Z,8.60
2023-01-22T23:42:50.693Z,9.77
2023-01-22T23:45:17.071Z,7.88
2023-01-22T23:47:43.414Z,8.80
2023-01-22T23:50:10.249Z,7.25
2023-01-22T23:52:36.685Z,8.50
2023-01-22T23:55:03.069Z,10.57
2023-01-22T23:57:29.341Z,8.02
2023-01-22T23:59:55.603Z,9.30
